Time;durP1;ratioP1;P1;durP2;ratioP2;P2;SDS_P1;SDS_P2;PMS_P1;PMS_P2;Temp;Humidity;BMP_temperature;BMP_pressure;BME280_temperature;BME280_humidity;BME280_pressure;Samples;Min_cycle;Max_cycle;Signal;HPM_P1;HPM_P2
2023/06/20 00:00:33;;;;;;;3.65;3.35;;;;;;;;;;5061149;28;20214;-62
2023/06/20 00:03:00;;;;;;;2.92;2.72;;;;;;;;;;5060706;28;20246;-62
2023/06/20 00:05:27;;;;;;;2.63;2.53;;;;;;;;;;5058327;28;20771;-62
2023/06/20 00:07:54;;;;;;;2.85;2.75;;;;;;;;;;5059826;28;20651;-62
2023/06/20 00:10:21;;;;;;;3.25;3.05;;;;;;;;;;5058340;28;20306;-62
2023/06/20 00:12:48;;;;;;;3.47;3.08;;;;;;;;;;5059066;28;20208;-62
2023/06/20 00:15:16;;;;;;;3.00;2.90;;;;;;;;;;5058782;28;20206;-63
2023/06/20 00:17:43;;;;;;;3.50;3.30;;;;;;;;;;5060524;28;20717;-62
2023/06/20 00:20:11;;;;;;;3.03;2.92;;;;;;;;;;5059310;28;20212;-63
2023/06/20 00:22:38;;;;;;;3.83;3.53;;;;;;;;;;5059207;28;20230;-62
2023/06/20 00:25:05;;;;;;;3.63;3.42;;;;;;;;;;5059028;28;20208;-62
2023/06/20 00:27:33;;;;;;;4.00;3.78;;;;;;;;;;5059956;28;20208;-63
2023/06/20 00:30:00;;;;;;;3.65;3.45;;;;;;;;;;5059243;28;20222;-62
2023/06/20 00:32:28;;;;;;;3.42;3.25;;;;;;;;;;5060960;28;20215;-62
2023/06/20 00:34:58;;;;;;;3.95;3.65;;;;;;;;;;5059642;28;20691;-62
2023/06/20 00:37:25;;;;;;;3.40;3.30;;;;;;;;;;5058225;28;20310;-63
2023/06/20 00:39:53;;;;;;;3.85;3.55;;;;;;;;;;5060341;28;20214;-62
2023/06/20 00:42:20;;;;;;;3.75;3.55;;;;;;;;;;5058471;28;20309;-62
2023/06/20 00:44:47;;;;;;;3.78;3.58;;;;;;;;;;5057162;28;20223;-62
2023/06/20 00:47:16;;;;;;;3.75;3.45;;;;;;;;;;5059129;28;20203;-62
2023/06/20 00:49:46;;;;;;;4.07;3.75;;;;;;;;;;5058291;28;20587;-62
2023/06/20 00:52:14;;;;;;;4.07;3.63;;;;;;;;;;5059431;28;20268;-62
2023/06/20 00:54:41;;;;;;;3.75;3.45;;;;;;;;;;5058435;28;20213;-63
2023/06/20 00:57:08;;;;;;;4.68;4.28;;;;;;;;;;5058698;28;20211;-62
2023/06/20 00:59:35;;;;;;;3.95;3.60;;;;;;;;;;5054562;28;20218;-62
2023/06/20 01:02:03;;;;;;;3.83;3.63;;;;;;;;;;5054014;28;20224;-63
2023/06/20 01:04:31;;;;;;;4.18;3.85;;;;;;;;;;5056287;28;20203;-62
2023/06/20 01:07:03;;;;;;;4.22;3.92;;;;;;;;;;5053563;28;20337;-62
2023/06/20 01:09:31;;;;;;;3.58;3.35;;;;;;;;;;5059113;28;20210;-62
2023/06/20 01:12:02;;;;;;;4.25;3.80;;;;;;;;;;5058642;28;20227;-61
2023/06/20 01:14:32;;;;;;;4.38;4.07;;;;;;;;;;5056661;28;20215;-61
2023/06/20 01:17:01;;;;;;;4.20;3.90;;;;;;;;;;5057925;28;20199;-61
2023/06/20 01:19:43;;;;;;;4.57;4.18;;;;;;;;;;5057803;28;20208;-61
2023/06/20 01:22:14;;;;;;;4.63;4.22;;;;;;;;;;5057661;28;20216;-61
2023/06/20 01:24:46;;;;;;;4.18;3.88;;;;;;;;;;5055402;28;20226;-61
2023/06/20 01:27:15;;;;;;;3.92;3.67;;;;;;;;;;5047824;28;20203;-61
2023/06/20 01:29:47;;;;;;;6.07;3.95;;;;;;;;;;5047928;28;20878;-61
2023/06/20 01:32:15;;;;;;;5.30;3.92;;;;;;;;;;5057752;28;20210;-62
2023/06/20 01:34:46;;;;;;;4.47;4.18;;;;;;;;;;5048528;28;20269;-62
2023/06/20 01:37:16;;;;;;;3.83;3.60;;;;;;;;;;5051045;28;20230;-62
2023/06/20 01:39:46;;;;;;;3.65;3.45;;;;;;;;;;5057962;28;20216;-62
2023/06/20 01:42:13;;;;;;;3.80;3.60;;;;;;;;;;5067952;28;20206;-62
2023/06/20 01:44:41;;;;;;;4.57;4.18;;;;;;;;;;5065865;28;20218;-61
2023/06/20 01:47:09;;;;;;;3.63;3.42;;;;;;;;;;5050396;28;20211;-61
2023/06/20 01:49:37;;;;;;;4.18;3.65;;;;;;;;;;5048190;28;20549;-62
2023/06/20 01:52:05;;;;;;;4.57;4.20;;;;;;;;;;5048243;28;20322;-62
2023/06/20 01:54:33;;;;;;;3.83;3.58;;;;;;;;;;5055526;28;20210;-61
2023/06/20 01:57:03;;;;;;;3.95;3.65;;;;;;;;;;5060036;28;20455;-62
2023/06/20 01:59:31;;;;;;;4.38;4.00;;;;;;;;;;5047830;28;20235;-62
2023/06/20 02:01:59;;;;;;;4.28;3.92;;;;;;;;;;5047799;28;20207;-61
2023/06/20 02:04:27;;;;;;;4.05;3.85;;;;;;;;;;5048913;28;20200;-62
2023/06/20 02:06:55;;;;;;;3.80;3.60;;;;;;;;;;5047735;28;20215;-62
2023/06/20 02:09:22;;;;;;;4.50;4.15;;;;;;;;;;5054671;28;20208;-62
2023/06/20 02:11:49;;;;;;;4.40;3.97;;;;;;;;;;5066387;28;20214;-62
2023/06/20 02:14:18;;;;;;;3.53;3.33;;;;;;;;;;5067576;28;20284;-62
2023/06/20 02:16:45;;;;;;;3.83;3.47;;;;;;;;;;5067467;28;20911;-62
2023/06/20 02:19:12;;;;;;;3.97;3.78;;;;;;;;;;5067474;28;20923;-62
2023/06/20 02:21:41;;;;;;;4.18;3.92;;;;;;;;;;5067563;28;20227;-62
2023/06/20 02:24:09;;;;;;;3.95;3.30;;;;;;;;;;5052351;28;20212;-62
2023/06/20 02:26:39;;;;;;;4.13;3.83;;;;;;;;;;5047319;28;20216;-61
2023/06/20 02:29:08;;;;;;;4.38;4.00;;;;;;;;;;5058873;28;20203;-61
2023/06/20 02:31:38;;;;;;;4.63;4.32;;;;;;;;;;5067526;28;20210;-62
2023/06/20 02:34:07;;;;;;;5.57;5.07;;;;;;;;;;5067233;28;20218;-62
2023/06/20 02:36:35;;;;;;;5.00;4.47;;;;;;;;;;5066970;28;20210;-62
2023/06/20 02:39:04;;;;;;;5.35;4.72;;;;;;;;;;5049847;28;20231;-62
2023/06/20 02:41:31;;;;;;;5.70;4.65;;;;;;;;;;5047012;28;20212;-62
2023/06/20 02:43:58;;;;;;;4.97;4.38;;;;;;;;;;5046684;28;20208;-62
2023/06/20 02:46:29;;;;;;;8.30;5.15;;;;;;;;;;5060272;28;20284;-62
2023/06/20 02:49:00;;;;;;;5.57;5.07;;;;;;;;;;5066184;28;20665;-62
2023/06/20 02:51:30;;;;;;;5.30;4.80;;;;;;;;;;5066428;28;20221;-62
2023/06/20 02:54:00;;;;;;;6.90;4.75;;;;;;;;;;5066508;28;20250;-63
2023/06/20 02:56:29;;;;;;;5.32;4.82;;;;;;;;;;5066413;28;20313;-62
2023/06/20 02:58:57;;;;;;;5.15;4.75;;;;;;;;;;5066565;28;20233;-63
2023/06/20 03:01:26;;;;;;;5.68;5.22;;;;;;;;;;5066521;28;20211;-63
2023/06/20 03:03:55;;;;;;;5.53;5.03;;;;;;;;;;5052845;28;20322;-63
2023/06/20 03:06:27;;;;;;;8.98;5.22;;;;;;;;;;5065863;28;20249;-62
2023/06/20 03:08:55;;;;;;;5.53;4.90;;;;;;;;;;5066339;28;20309;-63
2023/06/20 03:11:22;;;;;;;5.78;5.25;;;;;;;;;;5056661;28;20200;-63
2023/06/20 03:13:49;;;;;;;5.38;4.97;;;;;;;;;;5049221;28;20692;-63
2023/06/20 03:16:16;;;;;;;5.93;5.22;;;;;;;;;;5065518;28;20672;-63
2023/06/20 03:18:44;;;;;;;15.20;5.10;;;;;;;;;;5064175;28;20230;-62
2023/06/20 03:21:11;;;;;;;5.55;5.05;;;;;;;;;;5045759;28;20791;-63
2023/06/20 03:23:40;;;;;;;5.25;4.80;;;;;;;;;;5063504;28;20211;-63
2023/06/20 03:26:07;;;;;;;5.88;5.22;;;;;;;;;;5054685;28;20203;-62
2023/06/20 03:28:34;;;;;;;7.68;5.55;;;;;;;;;;5055437;28;20643;-63
2023/06/20 03:31:01;;;;;;;6.13;5.10;;;;;;;;;;5057871;28;20238;-63
2023/06/20 03:33:28;;;;;;;6.43;5.82;;;;;;;;;;5065428;28;20344;-62
2023/06/20 03:35:55;;;;;;;5.53;5.03;;;;;;;;;;5065354;28;20572;-62
2023/06/20 03:38:22;;;;;;;5.25;4.78;;;;;;;;;;5065632;28;20678;-62
2023/06/20 03:40:51;;;;;;;5.55;5.05;;;;;;;;;;5069818;28;20344;-62
2023/06/20 03:43:18;;;;;;;6.78;6.07;;;;;;;;;;5051092;28;20656;-63
2023/06/20 03:45:46;;;;;;;8.65;5.80;;;;;;;;;;5049757;28;20825;-63
2023/06/20 03:48:13;;;;;;;5.85;5.35;;;;;;;;;;5063820;28;20293;-62
2023/06/20 03:50:40;;;;;;;5.93;5.43;;;;;;;;;;5069643;28;20207;-62
2023/06/20 03:53:07;;;;;;;6.25;5.65;;;;;;;;;;5066286;28;20269;-63
2023/06/20 03:55:34;;;;;;;6.03;5.53;;;;;;;;;;5049577;28;20222;-63
2023/06/20 03:58:02;;;;;;;6.70;5.57;;;;;;;;;;5049348;28;20670;-63
2023/06/20 04:00:29;;;;;;;6.47;5.50;;;;;;;;;;5052145;28;20577;-62
2023/06/20 04:02:56;;;;;;;6.18;5.57;;;;;;;;;;5068703;28;20246;-62
2023/06/20 04:05:23;;;;;;;6.22;5.65;;;;;;;;;;5069257;28;20219;-62
2023/06/20 04:07:50;;;;;;;9.27;5.70;;;;;;;;;;5058301;28;20207;-64
2023/06/20 04:10:17;;;;;;;7.25;5.47;;;;;;;;;;5053982;28;20208;-63
2023/06/20 04:12:44;;;;;;;5.70;5.18;;;;;;;;;;5053006;28;20642;-62
2023/06/20 04:15:13;;;;;;;5.90;5.40;;;;;;;;;;5050836;28;20204;-63
2023/06/20 04:17:41;;;;;;;6.07;5.57;;;;;;;;;;5065145;28;20314;-63
2023/06/20 04:20:12;;;;;;;6.20;5.55;;;;;;;;;;5064438;28;20326;-63
2023/06/20 04:22:40;;;;;;;5.53;5.00;;;;;;;;;;5068783;28;20218;-62
2023/06/20 04:25:08;;;;;;;6.60;5.90;;;;;;;;;;5066010;28;20209;-63
2023/06/20 04:27:35;;;;;;;10.02;5.88;;;;;;;;;;5062497;28;20211;-63
2023/06/20 04:30:02;;;;;;;7.47;5.07;;;;;;;;;;5049874;28;20212;-65
2023/06/20 04:32:30;;;;;;;6.20;5.60;;;;;;;;;;5049755;28;20246;-62
2023/06/20 04:34:57;;;;;;;5.90;5.40;;;;;;;;;;5061997;28;20206;-61
2023/06/20 04:37:24;;;;;;;7.18;5.80;;;;;;;;;;5049227;28;20637;-63
2023/06/20 04:39:51;;;;;;;7.70;5.93;;;;;;;;;;5050004;28;20299;-63
2023/06/20 04:42:18;;;;;;;6.78;6.10;;;;;;;;;;5061857;28;20680;-63
2023/06/20 04:44:48;;;;;;;7.95;6.60;;;;;;;;;;5060585;28;20216;-62
2023/06/20 04:47:16;;;;;;;6.95;6.25;;;;;;;;;;5058491;28;20211;-63
2023/06/20 04:49:44;;;;;;;6.28;5.70;;;;;;;;;;5048582;28;20208;-64
2023/06/20 04:52:11;;;;;;;7.38;6.30;;;;;;;;;;5055521;28;20206;-66
2023/06/20 04:54:38;;;;;;;6.63;5.93;;;;;;;;;;5049701;28;20222;-67
2023/06/20 04:57:05;;;;;;;6.45;5.78;;;;;;;;;;5057544;28;20199;-67
2023/06/20 04:59:35;;;;;;;7.57;5.68;;;;;;;;;;5069323;28;20230;-68
2023/06/20 05:02:04;;;;;;;6.22;5.68;;;;;;;;;;5061527;28;20720;-68
2023/06/20 05:04:31;;;;;;;7.18;6.40;;;;;;;;;;5063757;28;20207;-68
2023/06/20 05:07:01;;;;;;;6.22;5.68;;;;;;;;;;5052751;28;20218;-68
2023/06/20 05:09:28;;;;;;;7.40;6.18;;;;;;;;;;5049307;28;20208;-66
2023/06/20 05:11:56;;;;;;;6.75;6.15;;;;;;;;;;5054021;28;20209;-67
2023/06/20 05:14:24;;;;;;;6.93;5.88;;;;;;;;;;5049379;28;20211;-68
2023/06/20 05:16:51;;;;;;;7.43;6.03;;;;;;;;;;5055156;28;20218;-67
2023/06/20 05:19:18;;;;;;;6.72;5.97;;;;;;;;;;5067819;28;20223;-67
2023/06/20 05:21:45;;;;;;;6.55;5.90;;;;;;;;;;5058705;28;20227;-67
2023/06/20 05:24:13;;;;;;;5.93;5.38;;;;;;;;;;5049226;28;20207;-68
2023/06/20 05:26:40;;;;;;;6.47;5.93;;;;;;;;;;5051058;28;20696;-67
2023/06/20 05:29:08;;;;;;;6.90;6.32;;;;;;;;;;5049441;28;20219;-66
2023/06/20 05:31:35;;;;;;;7.20;6.18;;;;;;;;;;5052497;28;20254;-67
2023/06/20 05:34:03;;;;;;;5.95;5.38;;;;;;;;;;5050410;28;20211;-66
2023/06/20 05:36:30;;;;;;;6.90;6.22;;;;;;;;;;5060205;28;20210;-66
2023/06/20 05:38:58;;;;;;;7.05;6.35;;;;;;;;;;5066943;28;20223;-65
2023/06/20 05:41:27;;;;;;;6.60;5.88;;;;;;;;;;5053835;28;20258;-66
2023/06/20 05:43:54;;;;;;;6.28;5.72;;;;;;;;;;5058676;28;20222;-69
2023/06/20 05:46:21;;;;;;;7.25;6.07;;;;;;;;;;5051099;28;20552;-62
2023/06/20 05:48:49;;;;;;;20.38;8.38;;;;;;;;;;5048393;28;20285;-62
2023/06/20 05:51:16;;;;;;;6.47;5.88;;;;;;;;;;5056206;28;20231;-62
2023/06/20 05:53:43;;;;;;;6.90;6.18;;;;;;;;;;5044366;28;20341;-63
2023/06/20 05:56:10;;;;;;;6.10;5.60;;;;;;;;;;5049485;28;20250;-62
2023/06/20 05:58:39;;;;;;;9.23;6.22;;;;;;;;;;5066912;28;20215;-62
2023/06/20 06:01:06;;;;;;;7.00;6.25;;;;;;;;;;5062883;28;20607;-62
2023/06/20 06:03:34;;;;;;;8.30;5.78;;;;;;;;;;5047640;28;20244;-62
2023/06/20 06:06:03;;;;;;;6.38;5.78;;;;;;;;;;5066610;28;20215;-62
2023/06/20 06:08:30;;;;;;;6.25;5.57;;;;;;;;;;5067648;28;20207;-62
2023/06/20 06:10:57;;;;;;;6.78;6.15;;;;;;;;;;5049589;28;20717;-62
2023/06/20 06:13:24;;;;;;;6.22;5.72;;;;;;;;;;5048570;28;20212;-62
2023/06/20 06:18:56;;;;;;;6.63;6.03;;;;;;;;;;5045500;28;20222;-62
2023/06/20 06:21:23;;;;;;;6.25;5.68;;;;;;;;;;5047454;28;20235;-65
2023/06/20 06:23:50;;;;;;;7.53;6.45;;;;;;;;;;5047585;28;20211;-62
2023/06/20 06:26:17;;;;;;;7.05;6.32;;;;;;;;;;5050780;28;20230;-63
2023/06/20 06:28:44;;;;;;;6.65;6.05;;;;;;;;;;5054106;28;20207;-62
2023/06/20 06:31:13;;;;;;;6.60;5.85;;;;;;;;;;5050211;28;20272;-68
2023/06/20 06:33:40;;;;;;;6.10;5.53;;;;;;;;;;5053469;28;20199;-64
2023/06/20 06:36:09;;;;;;;7.15;6.45;;;;;;;;;;5057418;28;20214;-64
2023/06/20 06:38:36;;;;;;;6.68;6.05;;;;;;;;;;5048517;28;20206;-64
2023/06/20 06:41:03;;;;;;;6.93;6.05;;;;;;;;;;5058123;28;20299;-67
2023/06/20 06:43:30;;;;;;;6.18;5.60;;;;;;;;;;5046965;28;20214;-64
2023/06/20 06:45:57;;;;;;;6.93;6.22;;;;;;;;;;5052548;28;20332;-62
2023/06/20 06:48:24;;;;;;;9.25;6.97;;;;;;;;;;5066683;28;20211;-63
2023/06/20 06:50:51;;;;;;;6.93;6.32;;;;;;;;;;5059664;28;20242;-63
2023/06/20 06:53:20;;;;;;;8.77;6.72;;;;;;;;;;5046452;28;20249;-64
2023/06/20 06:55:47;;;;;;;6.38;5.78;;;;;;;;;;5057872;28;20253;-64
2023/06/20 06:58:14;;;;;;;6.80;6.20;;;;;;;;;;5055139;28;20215;-64
2023/06/20 07:00:41;;;;;;;7.15;6.45;;;;;;;;;;5046230;28;20576;-65
2023/06/20 07:03:08;;;;;;;7.68;6.95;;;;;;;;;;5046495;28;20301;-64
2023/06/20 07:05:35;;;;;;;6.78;6.18;;;;;;;;;;5046546;28;20200;-62
2023/06/20 07:08:02;;;;;;;6.63;6.13;;;;;;;;;;5049372;28;20258;-63
2023/06/20 07:10:30;;;;;;;8.52;7.43;;;;;;;;;;5065643;28;20207;-64
2023/06/20 07:12:57;;;;;;;8.40;7.38;;;;;;;;;;5062398;28;20203;-64
2023/06/20 07:15:24;;;;;;;8.82;7.70;;;;;;;;;;5050663;28;20596;-64
2023/06/20 07:17:51;;;;;;;8.27;7.47;;;;;;;;;;5050778;28;20216;-64
2023/06/20 07:20:18;;;;;;;7.35;6.65;;;;;;;;;;5051683;28;20238;-64
2023/06/20 07:22:45;;;;;;;7.20;6.60;;;;;;;;;;5050909;28;20208;-64
2023/06/20 07:25:13;;;;;;;8.07;7.28;;;;;;;;;;5050714;28;20656;-64
2023/06/20 07:27:41;;;;;;;8.13;7.35;;;;;;;;;;5053929;28;20210;-65
2023/06/20 07:30:08;;;;;;;8.55;7.10;;;;;;;;;;5054255;28;20673;-64
2023/06/20 07:32:35;;;;;;;8.02;7.30;;;;;;;;;;5068689;28;20200;-64
2023/06/20 07:35:02;;;;;;;7.78;7.10;;;;;;;;;;5057563;28;20223;-64
2023/06/20 07:37:29;;;;;;;7.95;7.18;;;;;;;;;;5051763;28;20223;-63
2023/06/20 07:39:56;;;;;;;6.97;6.38;;;;;;;;;;5068416;28;20227;-64
2023/06/20 07:42:23;;;;;;;8.30;7.60;;;;;;;;;;5070067;28;20210;-64
2023/06/20 07:44:52;;;;;;;9.05;8.10;;;;;;;;;;5059168;28;20670;-64
2023/06/20 07:47:19;;;;;;;8.57;7.88;;;;;;;;;;5063317;28;20206;-64
2023/06/20 07:49:46;;;;;;;8.82;7.93;;;;;;;;;;5064203;28;20203;-64
2023/06/20 07:52:13;;;;;;;9.02;8.20;;;;;;;;;;5049723;28;20234;-64
2023/06/20 07:54:40;;;;;;;9.95;8.57;;;;;;;;;;5050134;28;20203;-64
2023/06/20 07:57:07;;;;;;;8.52;7.82;;;;;;;;;;5066454;28;20199;-64
2023/06/20 07:59:34;;;;;;;8.75;7.95;;;;;;;;;;5067661;28;20222;-63
2023/06/20 08:02:03;;;;;;;8.30;7.53;;;;;;;;;;5068611;28;20203;-63
2023/06/20 08:04:30;;;;;;;9.10;7.40;;;;;;;;;;5068230;28;20211;-63
2023/06/20 08:06:57;;;;;;;8.45;7.75;;;;;;;;;;5069577;28;20198;-64
2023/06/20 08:09:24;;;;;;;8.88;7.97;;;;;;;;;;5068189;28;20755;-64
2023/06/20 08:11:51;;;;;;;8.52;7.63;;;;;;;;;;5068164;28;20218;-62
2023/06/20 08:14:19;;;;;;;8.88;8.07;;;;;;;;;;5068811;28;20288;-62
2023/06/20 08:16:46;;;;;;;8.48;7.75;;;;;;;;;;5067778;28;20233;-62
2023/06/20 08:19:15;;;;;;;9.75;8.38;;;;;;;;;;5064129;28;20206;-64
2023/06/20 08:21:42;;;;;;;9.00;8.23;;;;;;;;;;5051349;28;20234;-65
2023/06/20 08:24:09;;;;;;;8.55;7.65;;;;;;;;;;5059109;28;20678;-63
2023/06/20 08:26:36;;;;;;;10.05;9.05;;;;;;;;;;5057172;28;20210;-62
2023/06/20 08:29:03;;;;;;;7.88;7.25;;;;;;;;;;5055845;28;20265;-63
2023/06/20 08:31:36;;;;;;;9.35;8.45;;;;;;;;;;5068374;28;20623;-62
2023/06/20 08:34:03;;;;;;;8.60;7.80;;;;;;;;;;5049376;28;20248;-63
2023/06/20 08:36:32;;;;;;;9.73;7.95;;;;;;;;;;5053020;28;20204;-63
2023/06/20 08:39:00;;;;;;;9.80;7.57;;;;;;;;;;5055381;28;20225;-64
2023/06/20 08:41:27;;;;;;;9.75;8.48;;;;;;;;;;5069151;28;20235;-64
2023/06/20 08:43:54;;;;;;;8.23;7.53;;;;;;;;;;5065014;28;20257;-63
2023/06/20 08:46:24;;;;;;;9.90;7.75;;;;;;;;;;5049253;28;20258;-64
2023/06/20 08:48:51;;;;;;;9.15;8.23;;;;;;;;;;5049137;28;20211;-64
2023/06/20 08:51:18;;;;;;;8.40;7.60;;;;;;;;;;5049097;28;20681;-64
2023/06/20 08:53:47;;;;;;;9.55;8.70;;;;;;;;;;5050197;28;20211;-64
2023/06/20 08:56:15;;;;;;;10.40;8.75;;;;;;;;;;5057392;28;20674;-64
2023/06/20 08:58:42;;;;;;;8.70;7.80;;;;;;;;;;5047682;28;20234;-65
2023/06/20 09:01:09;;;;;;;9.02;8.23;;;;;;;;;;5055644;28;20230;-64
2023/06/20 09:03:36;;;;;;;9.75;8.65;;;;;;;;;;5065998;28;20242;-64
2023/06/20 09:06:04;;;;;;;10.25;9.25;;;;;;;;;;5066758;28;20206;-64
2023/06/20 09:08:35;;;;;;;10.05;9.05;;;;;;;;;;5052868;28;20225;-64
2023/06/20 09:11:12;;;;;;;9.90;8.95;;;;;;;;;;5055571;28;20297;-65
2023/06/20 09:13:49;;;;;;;9.63;8.10;;;;;;;;;;5056538;28;20226;-64
2023/06/20 09:16:16;;;;;;;7.78;7.18;;;;;;;;;;5065659;28;20217;-63
2023/06/20 09:18:43;;;;;;;9.38;8.50;;;;;;;;;;5068086;28;20536;-64
2023/06/20 09:21:16;;;;;;;7.80;7.20;;;;;;;;;;5068106;28;20234;-64
2023/06/20 09:23:43;;;;;;;8.40;7.53;;;;;;;;;;5066194;28;20285;-64
2023/06/20 09:26:18;;;;;;;8.77;7.88;;;;;;;;;;5066512;28;20218;-64
2023/06/20 09:28:45;;;;;;;8.82;8.02;;;;;;;;;;5063155;28;20218;-62
2023/06/20 09:31:13;;;;;;;8.40;7.47;;;;;;;;;;5065636;28;20454;-63
2023/06/20 09:33:41;;;;;;;8.20;7.43;;;;;;;;;;5065364;28;20855;-62
2023/06/20 09:36:14;;;;;;;8.68;6.85;;;;;;;;;;5064491;28;20740;-65
2023/06/20 09:38:43;;;;;;;6.85;6.30;;;;;;;;;;5066656;28;20236;-63
2023/06/20 09:41:10;;;;;;;8.88;8.18;;;;;;;;;;5061419;28;20286;-62
2023/06/20 09:43:38;;;;;;;6.88;6.30;;;;;;;;;;5047118;28;20214;-62
2023/06/20 09:46:05;;;;;;;7.50;6.80;;;;;;;;;;5060339;28;20206;-62
2023/06/20 09:48:34;;;;;;;6.47;5.97;;;;;;;;;;5066498;28;20614;-63
2023/06/20 09:51:02;;;;;;;6.88;6.38;;;;;;;;;;5056950;28;20210;-64
2023/06/20 09:53:33;;;;;;;8.23;7.43;;;;;;;;;;5047310;28;20215;-63
2023/06/20 09:56:01;;;;;;;6.88;6.32;;;;;;;;;;5058895;28;20213;-64
2023/06/20 09:58:29;;;;;;;7.00;6.50;;;;;;;;;;5061629;28;20217;-64
2023/06/20 10:00:57;;;;;;;6.50;6.00;;;;;;;;;;5051752;28;20230;-63
2023/06/20 10:03:25;;;;;;;7.32;6.75;;;;;;;;;;5063091;28;20234;-64
2023/06/20 10:05:52;;;;;;;6.30;5.78;;;;;;;;;;5063494;28;20206;-64
2023/06/20 10:08:19;;;;;;;6.38;5.88;;;;;;;;;;5060821;28;20207;-66
2023/06/20 10:10:47;;;;;;;6.88;6.28;;;;;;;;;;5064484;28;20210;-66
2023/06/20 10:13:15;;;;;;;6.47;5.95;;;;;;;;;;5062825;28;20371;-67
2023/06/20 10:15:43;;;;;;;6.80;6.22;;;;;;;;;;5066559;28;20308;-66
2023/06/20 10:18:20;;;;;;;6.60;6.10;;;;;;;;;;5059650;28;20214;-63
2023/06/20 10:20:48;;;;;;;6.22;5.78;;;;;;;;;;5054444;28;20218;-63
2023/06/20 10:23:15;;;;;;;6.05;5.45;;;;;;;;;;5049719;28;20303;-62
2023/06/20 10:25:51;;;;;;;5.50;5.00;;;;;;;;;;5057308;28;20732;-63
2023/06/20 10:28:20;;;;;;;5.57;5.13;;;;;;;;;;5067331;28;20217;-62
2023/06/20 10:30:57;;;;;;;5.22;4.82;;;;;;;;;;5065363;28;20209;-62
2023/06/20 10:33:26;;;;;;;5.80;5.40;;;;;;;;;;5065504;28;20206;-62
2023/06/20 10:35:57;;;;;;;5.78;5.28;;;;;;;;;;5042533;28;20214;-61
2023/06/20 10:38:25;;;;;;;5.45;5.03;;;;;;;;;;5059950;28;20211;-58
2023/06/20 10:41:06;;;;;;;5.45;5.15;;;;;;;;;;5066596;28;20230;-61
2023/06/20 10:43:46;;;;;;;5.50;5.13;;;;;;;;;;5055464;28;20211;-62
2023/06/20 10:46:13;;;;;;;5.55;5.22;;;;;;;;;;5045964;28;20217;-61
2023/06/20 10:48:42;;;;;;;5.22;4.93;;;;;;;;;;5061232;28;20214;-60
2023/06/20 10:51:09;;;;;;;5.60;5.20;;;;;;;;;;5064665;28;20255;-60
2023/06/20 10:53:36;;;;;;;5.57;5.18;;;;;;;;;;5064272;28;20297;-60
2023/06/20 10:56:03;;;;;;;5.50;5.10;;;;;;;;;;5054292;28;20210;-61
2023/06/20 10:58:30;;;;;;;5.65;5.15;;;;;;;;;;5064971;28;20209;-60
2023/06/20 11:00:58;;;;;;;5.45;5.03;;;;;;;;;;5065050;28;20738;-62
2023/06/20 11:03:25;;;;;;;4.72;4.53;;;;;;;;;;5065220;28;20291;-62
2023/06/20 11:05:55;;;;;;;5.03;4.60;;;;;;;;;;5065574;28;20266;-63
2023/06/20 11:08:22;;;;;;;4.53;4.32;;;;;;;;;;5065729;28;20594;-64
2023/06/20 11:10:50;;;;;;;4.88;4.57;;;;;;;;;;5064148;28;20262;-62
2023/06/20 11:13:17;;;;;;;4.90;4.57;;;;;;;;;;5065370;28;20246;-62
2023/06/20 11:15:44;;;;;;;5.18;4.82;;;;;;;;;;5057568;28;20298;-66
2023/06/20 11:18:11;;;;;;;5.10;4.80;;;;;;;;;;5053606;28;20287;-62
2023/06/20 11:20:39;;;;;;;4.85;4.60;;;;;;;;;;5046199;28;20303;-62
2023/06/20 11:23:08;;;;;;;5.03;4.63;;;;;;;;;;5045420;28;20211;-63
2023/06/20 11:25:36;;;;;;;5.38;4.97;;;;;;;;;;5060027;28;20241;-63
2023/06/20 11:28:07;;;;;;;4.93;4.53;;;;;;;;;;5061787;28;20268;-63
2023/06/20 11:30:35;;;;;;;5.38;4.68;;;;;;;;;;5056980;28;20210;-63
2023/06/20 11:33:04;;;;;;;6.10;5.40;;;;;;;;;;5057166;28;20211;-64
2023/06/20 11:35:41;;;;;;;5.25;4.90;;;;;;;;;;5049360;28;20234;-67
2023/06/20 11:38:10;;;;;;;5.38;4.88;;;;;;;;;;5045993;28;20674;-64
2023/06/20 11:40:37;;;;;;;6.43;5.82;;;;;;;;;;5051207;28;20206;-65
2023/06/20 11:43:04;;;;;;;4.78;4.57;;;;;;;;;;5054892;28;20198;-64
2023/06/20 11:45:31;;;;;;;5.45;5.05;;;;;;;;;;5050941;28;20223;-65
2023/06/20 11:48:08;;;;;;;5.05;4.65;;;;;;;;;;5046118;28;20203;-65
2023/06/20 11:50:35;;;;;;;4.95;4.60;;;;;;;;;;5061981;28;20206;-65
2023/06/20 11:53:03;;;;;;;4.55;4.25;;;;;;;;;;5056236;28;20217;-65
2023/06/20 11:55:47;;;;;;;5.32;5.00;;;;;;;;;;5048613;28;20326;-65
2023/06/20 11:58:15;;;;;;;5.10;4.80;;;;;;;;;;5050096;28;20210;-64
2023/06/20 12:00:45;;;;;;;5.47;5.18;;;;;;;;;;5057404;28;20741;-65
2023/06/20 12:03:12;;;;;;;5.00;4.70;;;;;;;;;;5059198;28;20226;-65
2023/06/20 12:05:40;;;;;;;5.13;4.72;;;;;;;;;;5055106;28;20218;-65
2023/06/20 12:08:07;;;;;;;6.03;5.35;;;;;;;;;;5048628;28;20229;-63
2023/06/20 12:10:39;;;;;;;6.20;5.60;;;;;;;;;;5048237;28;20230;-63
2023/06/20 12:13:08;;;;;;;6.00;5.50;;;;;;;;;;5048131;28;20199;-63
2023/06/20 12:15:35;;;;;;;5.10;4.78;;;;;;;;;;5050803;28;20213;-63
2023/06/20 12:18:03;;;;;;;5.93;4.95;;;;;;;;;;5067336;28;20725;-63
2023/06/20 12:20:30;;;;;;;5.25;4.93;;;;;;;;;;5056715;28;20461;-63
2023/06/20 12:22:57;;;;;;;5.50;5.00;;;;;;;;;;5050695;28;20219;-63
2023/06/20 12:25:24;;;;;;;4.85;4.53;;;;;;;;;;5057507;28;20661;-62
2023/06/20 12:27:52;;;;;;;5.13;4.82;;;;;;;;;;5051699;28;20302;-63
2023/06/20 12:30:20;;;;;;;4.82;4.63;;;;;;;;;;5049838;28;20207;-63
2023/06/20 12:32:47;;;;;;;4.80;4.50;;;;;;;;;;5058331;28;20253;-63
2023/06/20 12:35:14;;;;;;;4.95;4.63;;;;;;;;;;5048613;28;20306;-63
2023/06/20 12:37:41;;;;;;;4.88;4.57;;;;;;;;;;5048926;28;20247;-63
2023/06/20 12:40:13;;;;;;;4.63;4.43;;;;;;;;;;5048582;28;20693;-63
2023/06/20 12:42:40;;;;;;;5.07;4.78;;;;;;;;;;5048925;28;20231;-63
2023/06/20 12:45:07;;;;;;;5.18;4.78;;;;;;;;;;5052787;28;20676;-63
2023/06/20 12:47:36;;;;;;;4.90;4.50;;;;;;;;;;5056362;28;20207;-63
2023/06/20 12:50:03;;;;;;;5.03;4.57;;;;;;;;;;5049246;28;20396;-63
2023/06/20 12:52:31;;;;;;;5.22;4.93;;;;;;;;;;5058453;28;20210;-65
2023/06/20 12:55:00;;;;;;;5.70;5.20;;;;;;;;;;5058177;28;20317;-64
2023/06/20 12:57:27;;;;;;;4.70;4.40;;;;;;;;;;5060371;28;20218;-65
2023/06/20 12:59:54;;;;;;;5.10;4.75;;;;;;;;;;5061553;28;20215;-65
2023/06/20 13:02:22;;;;;;;4.75;4.43;;;;;;;;;;5058406;28;20276;-65
2023/06/20 13:04:51;;;;;;;5.30;4.90;;;;;;;;;;5063355;28;20202;-65
2023/06/20 13:07:20;;;;;;;5.15;4.57;;;;;;;;;;5067956;28;20561;-64
2023/06/20 13:09:47;;;;;;;6.38;4.90;;;;;;;;;;5060907;28;20733;-64
2023/06/20 13:12:14;;;;;;;4.85;4.55;;;;;;;;;;5061502;28;20206;-64
2023/06/20 13:14:42;;;;;;;5.00;4.70;;;;;;;;;;5057006;28;20257;-65
2023/06/20 13:17:09;;;;;;;4.72;4.28;;;;;;;;;;5060798;28;20198;-64
2023/06/20 13:19:36;;;;;;;5.85;5.28;;;;;;;;;;5059255;28;20206;-65
2023/06/20 13:22:05;;;;;;;5.35;4.70;;;;;;;;;;5067448;28;20237;-64
2023/06/20 13:24:32;;;;;;;5.18;4.50;;;;;;;;;;5065503;28;20214;-64
2023/06/20 13:26:59;;;;;;;4.80;4.45;;;;;;;;;;5058340;28;20214;-64
2023/06/20 13:29:26;;;;;;;4.88;4.57;;;;;;;;;;5047019;28;20294;-66
2023/06/20 13:31:54;;;;;;;5.03;4.53;;;;;;;;;;5047579;28;20301;-64
2023/06/20 13:34:21;;;;;;;5.00;4.60;;;;;;;;;;5047360;28;20215;-64
2023/06/20 13:36:48;;;;;;;4.70;4.40;;;;;;;;;;5047737;28;20250;-65
2023/06/20 13:39:17;;;;;;;5.63;5.03;;;;;;;;;;5047282;28;20211;-65
2023/06/20 13:41:44;;;;;;;4.97;4.68;;;;;;;;;;5066397;28;20218;-64
2023/06/20 13:44:11;;;;;;;4.43;4.22;;;;;;;;;;5060022;28;20207;-65
2023/06/20 13:46:38;;;;;;;4.30;4.10;;;;;;;;;;5048786;28;20222;-64
2023/06/20 13:49:05;;;;;;;4.88;4.55;;;;;;;;;;5064827;28;20316;-64
2023/06/20 13:51:33;;;;;;;7.22;4.95;;;;;;;;;;5067299;28;20239;-64
2023/06/20 13:54:00;;;;;;;5.10;4.78;;;;;;;;;;5067296;28;20209;-64
2023/06/20 13:56:29;;;;;;;4.32;4.13;;;;;;;;;;5066109;28;20287;-64
2023/06/20 13:58:56;;;;;;;5.40;5.00;;;;;;;;;;5052771;28;20210;-65
2023/06/20 14:01:23;;;;;;;4.55;4.25;;;;;;;;;;5063093;28;20319;-65
2023/06/20 14:03:51;;;;;;;4.57;4.38;;;;;;;;;;5056273;28;20238;-65
2023/06/20 14:06:18;;;;;;;6.63;4.72;;;;;;;;;;5056449;28;20321;-64
2023/06/20 14:08:46;;;;;;;4.78;4.47;;;;;;;;;;5065855;28;20699;-64
2023/06/20 14:11:14;;;;;;;4.30;4.10;;;;;;;;;;5066326;28;20668;-65
2023/06/20 14:13:42;;;;;;;7.97;4.22;;;;;;;;;;5058595;28;20215;-65
2023/06/20 14:16:09;;;;;;;4.68;4.38;;;;;;;;;;5042719;28;20215;-66
2023/06/20 14:18:36;;;;;;;5.18;4.80;;;;;;;;;;5046353;28;20298;-64
2023/06/20 14:21:03;;;;;;;5.03;4.72;;;;;;;;;;5062558;28;20237;-64
2023/06/20 14:23:30;;;;;;;4.60;4.38;;;;;;;;;;5044765;28;20227;-64
2023/06/20 14:25:58;;;;;;;4.55;4.20;;;;;;;;;;5045555;28;20211;-64
2023/06/20 14:28:27;;;;;;;4.13;3.95;;;;;;;;;;5050472;28;20234;-64
2023/06/20 14:30:55;;;;;;;4.03;3.70;;;;;;;;;;5064545;28;20698;-65
2023/06/20 14:33:24;;;;;;;4.22;4.03;;;;;;;;;;5051959;28;20263;-65
2023/06/20 14:35:51;;;;;;;4.43;4.10;;;;;;;;;;5046264;28;20210;-65
2023/06/20 14:38:18;;;;;;;3.50;3.28;;;;;;;;;;5053640;28;20304;-65
2023/06/20 14:40:45;;;;;;;3.83;3.63;;;;;;;;;;5044380;28;20214;-64
2023/06/20 14:43:13;;;;;;;3.92;3.63;;;;;;;;;;5047810;28;20226;-64
2023/06/20 14:45:41;;;;;;;4.10;3.70;;;;;;;;;;5058098;28;20401;-64
2023/06/20 14:48:09;;;;;;;4.10;3.90;;;;;;;;;;5058989;28;20681;-65
2023/06/20 14:50:36;;;;;;;3.50;3.20;;;;;;;;;;5064256;28;20209;-65